sensor_id;sensor_type;location;lat;lon;timestamp;P1;durP1;ratioP1;P2;durP2;ratioP2
29210;SDS011;16250;49.932;10.980;2023-06-14T00:01:45;6.93;;;5.47;;
29210;SDS011;16250;49.932;10.980;2023-06-14T00:04:11;8.00;;;5.30;;
29210;SDS011;16250;49.932;10.980;2023-06-14T00:06:38;8.55;;;5.57;;
29210;SDS011;16250;49.932;10.980;2023-06-14T00:14:20;7.35;;;4.78;;
29210;SDS011;16250;49.932;10.980;2023-06-14T00:16:45;9.20;;;5.30;;
29210;SDS011;16250;49.932;10.980;2023-06-14T00:19:11;8.98;;;5.50;;
29210;SDS011;16250;49.932;10.980;2023-06-14T00:21:36;8.05;;;5.50;;
29210;SDS011;16250;49.932;10.980;2023-06-14T00:24:03;6.72;;;5.30;;
29210;SDS011;16250;49.932;10.980;2023-06-14T00:26:29;6.97;;;5.90;;
29210;SDS011;16250;49.932;10.980;2023-06-14T00:28:55;7.43;;;5.40;;
29210;SDS011;16250;49.932;10.980;2023-06-14T00:31:21;6.60;;;5.40;;
29210;SDS011;16250;49.932;10.980;2023-06-14T00:33:47;6.68;;;5.20;;
29210;SDS011;16250;49.932;10.980;2023-06-14T00:36:13;6.20;;;5.00;;
29210;SDS011;16250;49.932;10.980;2023-06-14T00:38:39;5.30;;;4.80;;
29210;SDS011;16250;49.932;10.980;2023-06-14T00:41:05;7.97;;;5.78;;
29210;SDS011;16250;49.932;10.980;2023-06-14T00:43:30;7.50;;;5.28;;
29210;SDS011;16250;49.932;10.980;2023-06-14T00:45:55;9.90;;;5.57;;
29210;SDS011;16250;49.932;10.980;2023-06-14T00:48:21;7.03;;;5.07;;
29210;SDS011;16250;49.932;10.980;2023-06-14T00:50:47;7.47;;;5.28;;
29210;SDS011;16250;49.932;10.980;2023-06-14T00:53:15;8.05;;;5.95;;
29210;SDS011;16250;49.932;10.980;2023-06-14T00:55:43;7.60;;;5.78;;
29210;SDS011;16250;49.932;10.980;2023-06-14T00:58:09;7.47;;;5.78;;
29210;SDS011;16250;49.932;10.980;2023-06-14T01:00:35;8.63;;;5.22;;
29210;SDS011;16250;49.932;10.980;2023-06-14T01:03:00;9.32;;;6.05;;
29210;SDS011;16250;49.932;10.980;2023-06-14T01:05:26;6.75;;;5.32;;
29210;SDS011;16250;49.932;10.980;2023-06-14T01:08:00;10.07;;;5.68;;
29210;SDS011;16250;49.932;10.980;2023-06-14T01:13:33;5.95;;;5.35;;
29210;SDS011;16250;49.932;10.980;2023-06-14T01:16:00;8.02;;;4.72;;
29210;SDS011;16250;49.932;10.980;2023-06-14T01:18:27;9.52;;;5.60;;
29210;SDS011;16250;49.932;10.980;2023-06-14T01:20:54;7.03;;;5.50;;
29210;SDS011;16250;49.932;10.980;2023-06-14T01:23:23;8.20;;;5.53;;
29210;SDS011;16250;49.932;10.980;2023-06-14T01:25:51;6.78;;;5.00;;
29210;SDS011;16250;49.932;10.980;2023-06-14T01:28:20;8.40;;;5.57;;
29210;SDS011;16250;49.932;10.980;2023-06-14T01:30:47;7.18;;;5.85;;
29210;SDS011;16250;49.932;10.980;2023-06-14T01:33:22;7.63;;;5.32;;
29210;SDS011;16250;49.932;10.980;2023-06-14T01:35:49;7.75;;;4.95;;
29210;SDS011;16250;49.932;10.980;2023-06-14T01:38:15;8.07;;;5.03;;
29210;SDS011;16250;49.932;10.980;2023-06-14T01:40:43;9.40;;;5.57;;
29210;SDS011;16250;49.932;10.980;2023-06-14T01:43:10;7.18;;;5.50;;
29210;SDS011;16250;49.932;10.980;2023-06-14T01:45:37;6.70;;;5.38;;
29210;SDS011;16250;49.932;10.980;2023-06-14T01:48:03;7.50;;;5.22;;
29210;SDS011;16250;49.932;10.980;2023-06-14T01:50:30;8.13;;;5.68;;
29210;SDS011;16250;49.932;10.980;2023-06-14T01:52:56;8.20;;;5.25;;
29210;SDS011;16250;49.932;10.980;2023-06-14T01:55:22;6.68;;;5.20;;
29210;SDS011;16250;49.932;10.980;2023-06-14T01:57:49;8.73;;;5.47;;
29210;SDS011;16250;49.932;10.980;2023-06-14T02:00:15;7.93;;;5.28;;
29210;SDS011;16250;49.932;10.980;2023-06-14T02:02:42;9.43;;;5.60;;
29210;SDS011;16250;49.932;10.980;2023-06-14T02:05:07;7.78;;;5.57;;
29210;SDS011;16250;49.932;10.980;2023-06-14T02:07:34;9.13;;;5.75;;
29210;SDS011;16250;49.932;10.980;2023-06-14T02:09:59;6.88;;;5.60;;
29210;SDS011;16250;49.932;10.980;2023-06-14T02:12:24;10.40;;;5.70;;
29210;SDS011;16250;49.932;10.980;2023-06-14T02:14:50;9.77;;;5.25;;
29210;SDS011;16250;49.932;10.980;2023-06-14T02:17:16;9.57;;;5.82;;
29210;SDS011;16250;49.932;10.980;2023-06-14T02:19:42;5.97;;;5.35;;
29210;SDS011;16250;49.932;10.980;2023-06-14T02:22:08;7.88;;;5.40;;
29210;SDS011;16250;49.932;10.980;2023-06-14T02:24:33;10.25;;;5.88;;
29210;SDS011;16250;49.932;10.980;2023-06-14T02:26:59;7.55;;;5.35;;
29210;SDS011;16250;49.932;10.980;2023-06-14T02:29:25;6.43;;;5.45;;
29210;SDS011;16250;49.932;10.980;2023-06-14T02:31:50;7.63;;;5.53;;
29210;SDS011;16250;49.932;10.980;2023-06-14T02:34:18;6.50;;;5.43;;
29210;SDS011;16250;49.932;10.980;2023-06-14T02:36:46;7.75;;;5.60;;
29210;SDS011;16250;49.932;10.980;2023-06-14T02:39:12;6.85;;;5.80;;
29210;SDS011;16250;49.932;10.980;2023-06-14T02:41:38;11.77;;;5.50;;
29210;SDS011;16250;49.932;10.980;2023-06-14T02:44:04;8.98;;;5.85;;
29210;SDS011;16250;49.932;10.980;2023-06-14T02:46:29;8.85;;;5.68;;
29210;SDS011;16250;49.932;10.980;2023-06-14T02:48:55;9.13;;;6.07;;
29210;SDS011;16250;49.932;10.980;2023-06-14T02:51:20;6.60;;;5.63;;
29210;SDS011;16250;49.932;10.980;2023-06-14T02:53:45;6.60;;;5.90;;
29210;SDS011;16250;49.932;10.980;2023-06-14T02:56:11;6.38;;;5.18;;
29210;SDS011;16250;49.932;10.980;2023-06-14T02:58:37;7.53;;;6.15;;
29210;SDS011;16250;49.932;10.980;2023-06-14T03:01:04;8.93;;;5.55;;
29210;SDS011;16250;49.932;10.980;2023-06-14T03:03:31;6.63;;;5.40;;
29210;SDS011;16250;49.932;10.980;2023-06-14T03:05:58;10.65;;;6.95;;
29210;SDS011;16250;49.932;10.980;2023-06-14T03:08:29;10.48;;;6.25;;
29210;SDS011;16250;49.932;10.980;2023-06-14T03:10:58;6.63;;;5.93;;
29210;SDS011;16250;49.932;10.980;2023-06-14T03:13:24;9.52;;;5.93;;
29210;SDS011;16250;49.932;10.980;2023-06-14T03:15:51;7.32;;;5.90;;
29210;SDS011;16250;49.932;10.980;2023-06-14T03:18:18;7.47;;;6.20;;
29210;SDS011;16250;49.932;10.980;2023-06-14T03:20:44;7.28;;;5.90;;
29210;SDS011;16250;49.932;10.980;2023-06-14T03:23:11;7.07;;;6.07;;
29210;SDS011;16250;49.932;10.980;2023-06-14T03:25:38;6.95;;;6.25;;
29210;SDS011;16250;49.932;10.980;2023-06-14T03:28:06;10.65;;;6.53;;
29210;SDS011;16250;49.932;10.980;2023-06-14T03:30:31;9.52;;;6.55;;
29210;SDS011;16250;49.932;10.980;2023-06-14T03:32:59;12.10;;;6.40;;
29210;SDS011;16250;49.932;10.980;2023-06-14T03:35:28;8.10;;;6.88;;
29210;SDS011;16250;49.932;10.980;2023-06-14T03:37:54;7.65;;;6.32;;
29210;SDS011;16250;49.932;10.980;2023-06-14T03:40:20;8.65;;;5.90;;
29210;SDS011;16250;49.932;10.980;2023-06-14T03:42:49;7.55;;;6.80;;
29210;SDS011;16250;49.932;10.980;2023-06-14T03:45:15;8.85;;;6.47;;
29210;SDS011;16250;49.932;10.980;2023-06-14T03:47:40;8.57;;;6.97;;
29210;SDS011;16250;49.932;10.980;2023-06-14T03:50:06;8.25;;;6.50;;
29210;SDS011;16250;49.932;10.980;2023-06-14T03:52:33;8.40;;;6.25;;
29210;SDS011;16250;49.932;10.980;2023-06-14T03:54:58;10.77;;;6.70;;
29210;SDS011;16250;49.932;10.980;2023-06-14T03:57:25;8.68;;;6.45;;
29210;SDS011;16250;49.932;10.980;2023-06-14T03:59:53;7.53;;;6.60;;
29210;SDS011;16250;49.932;10.980;2023-06-14T04:02:18;11.52;;;6.68;;
29210;SDS011;16250;49.932;10.980;2023-06-14T04:04:44;9.10;;;6.38;;
29210;SDS011;16250;49.932;10.980;2023-06-14T04:07:11;9.73;;;6.53;;
29210;SDS011;16250;49.932;10.980;2023-06-14T04:09:37;8.45;;;6.55;;
29210;SDS011;16250;49.932;10.980;2023-06-14T04:12:04;9.07;;;6.88;;
29210;SDS011;16250;49.932;10.980;2023-06-14T04:14:31;9.38;;;6.63;;
29210;SDS011;16250;49.932;10.980;2023-06-14T04:16:58;9.10;;;6.53;;
29210;SDS011;16250;49.932;10.980;2023-06-14T04:19:24;9.93;;;6.75;;
29210;SDS011;16250;49.932;10.980;2023-06-14T04:21:49;7.55;;;6.88;;
29210;SDS011;16250;49.932;10.980;2023-06-14T04:24:16;8.65;;;7.38;;
29210;SDS011;16250;49.932;10.980;2023-06-14T04:26:44;8.85;;;7.03;;
29210;SDS011;16250;49.932;10.980;2023-06-14T04:29:11;8.07;;;7.00;;
29210;SDS011;16250;49.932;10.980;2023-06-14T04:31:40;9.70;;;6.70;;
29210;SDS011;16250;49.932;10.980;2023-06-14T04:34:09;8.75;;;6.75;;
29210;SDS011;16250;49.932;10.980;2023-06-14T04:36:41;10.98;;;7.47;;
29210;SDS011;16250;49.932;10.980;2023-06-14T04:39:15;7.93;;;7.13;;
29210;SDS011;16250;49.932;10.980;2023-06-14T04:41:43;8.23;;;7.13;;
29210;SDS011;16250;49.932;10.980;2023-06-14T04:44:09;12.18;;;8.05;;
29210;SDS011;16250;49.932;10.980;2023-06-14T04:46:39;9.68;;;7.57;;
29210;SDS011;16250;49.932;10.980;2023-06-14T04:49:15;9.45;;;7.82;;
29210;SDS011;16250;49.932;10.980;2023-06-14T04:51:41;8.95;;;7.80;;
29210;SDS011;16250;49.932;10.980;2023-06-14T04:54:08;9.40;;;6.95;;
29210;SDS011;16250;49.932;10.980;2023-06-14T04:56:35;10.73;;;8.13;;
29210;SDS011;16250;49.932;10.980;2023-06-14T04:59:03;11.60;;;7.30;;
29210;SDS011;16250;49.932;10.980;2023-06-14T05:01:32;8.70;;;7.40;;
29210;SDS011;16250;49.932;10.980;2023-06-14T05:03:59;13.20;;;8.20;;
29210;SDS011;16250;49.932;10.980;2023-06-14T05:06:25;8.85;;;7.57;;
29210;SDS011;16250;49.932;10.980;2023-06-14T05:08:52;11.40;;;7.68;;
29210;SDS011;16250;49.932;10.980;2023-06-14T05:11:18;11.13;;;7.18;;
29210;SDS011;16250;49.932;10.980;2023-06-14T05:13:43;12.13;;;7.93;;
29210;SDS011;16250;49.932;10.980;2023-06-14T05:16:11;9.80;;;7.40;;
29210;SDS011;16250;49.932;10.980;2023-06-14T05:18:37;9.63;;;7.57;;
29210;SDS011;16250;49.932;10.980;2023-06-14T05:21:03;11.10;;;7.63;;
29210;SDS011;16250;49.932;10.980;2023-06-14T05:23:30;10.75;;;7.45;;
29210;SDS011;16250;49.932;10.980;2023-06-14T05:25:56;10.02;;;6.93;;
29210;SDS011;16250;49.932;10.980;2023-06-14T05:28:22;11.05;;;7.43;;
29210;SDS011;16250;49.932;10.980;2023-06-14T05:30:47;12.20;;;7.40;;
29210;SDS011;16250;49.932;10.980;2023-06-14T05:33:13;9.00;;;7.00;;
29210;SDS011;16250;49.932;10.980;2023-06-14T05:35:38;10.15;;;7.60;;
29210;SDS011;16250;49.932;10.980;2023-06-14T05:38:03;8.32;;;7.50;;
29210;SDS011;16250;49.932;10.980;2023-06-14T05:40:29;8.55;;;7.18;;
29210;SDS011;16250;49.932;10.980;2023-06-14T05:42:55;10.25;;;7.32;;
29210;SDS011;16250;49.932;10.980;2023-06-14T05:45:20;7.85;;;6.88;;
29210;SDS011;16250;49.932;10.980;2023-06-14T05:47:46;9.30;;;7.38;;
29210;SDS011;16250;49.932;10.980;2023-06-14T05:50:11;9.10;;;7.03;;
29210;SDS011;16250;49.932;10.980;2023-06-14T05:52:36;10.15;;;6.85;;
29210;SDS011;16250;49.932;10.980;2023-06-14T05:55:02;15.50;;;7.20;;
29210;SDS011;16250;49.932;10.980;2023-06-14T05:57:28;10.02;;;7.03;;
29210;SDS011;16250;49.932;10.980;2023-06-14T05:59:54;9.60;;;6.85;;
29210;SDS011;16250;49.932;10.980;2023-06-14T06:02:19;10.80;;;6.88;;
29210;SDS011;16250;49.932;10.980;2023-06-14T06:04:45;7.43;;;6.28;;
29210;SDS011;16250;49.932;10.980;2023-06-14T06:07:10;11.18;;;6.72;;
29210;SDS011;16250;49.932;10.980;2023-06-14T06:09:36;11.45;;;7.22;;
29210;SDS011;16250;49.932;10.980;2023-06-14T06:12:01;7.57;;;6.70;;
29210;SDS011;16250;49.932;10.980;2023-06-14T06:14:26;8.73;;;6.57;;
29210;SDS011;16250;49.932;10.980;2023-06-14T06:16:53;8.95;;;6.45;;
29210;SDS011;16250;49.932;10.980;2023-06-14T06:19:18;9.73;;;6.60;;
29210;SDS011;16250;49.932;10.980;2023-06-14T06:21:44;10.85;;;6.55;;
29210;SDS011;16250;49.932;10.980;2023-06-14T06:24:09;9.40;;;6.90;;
29210;SDS011;16250;49.932;10.980;2023-06-14T06:26:35;9.40;;;6.88;;
29210;SDS011;16250;49.932;10.980;2023-06-14T06:29:00;10.18;;;6.35;;
29210;SDS011;16250;49.932;10.980;2023-06-14T06:31:25;8.63;;;7.05;;
29210;SDS011;16250;49.932;10.980;2023-06-14T06:33:52;10.23;;;7.07;;
29210;SDS011;16250;49.932;10.980;2023-06-14T06:36:19;11.88;;;6.88;;
29210;SDS011;16250;49.932;10.980;2023-06-14T06:38:45;8.18;;;6.18;;
29210;SDS011;16250;49.932;10.980;2023-06-14T06:41:10;8.20;;;6.30;;
29210;SDS011;16250;49.932;10.980;2023-06-14T06:43:35;7.95;;;5.75;;
29210;SDS011;16250;49.932;10.980;2023-06-14T06:46:01;7.50;;;6.03;;
29210;SDS011;16250;49.932;10.980;2023-06-14T06:48:27;6.55;;;5.55;;
29210;SDS011;16250;49.932;10.980;2023-06-14T06:50:52;7.78;;;5.40;;
29210;SDS011;16250;49.932;10.980;2023-06-14T06:53:18;7.28;;;6.03;;
29210;SDS011;16250;49.932;10.980;2023-06-14T06:55:43;6.60;;;5.57;;
29210;SDS011;16250;49.932;10.980;2023-06-14T06:58:09;6.90;;;5.65;;
29210;SDS011;16250;49.932;10.980;2023-06-14T07:00:34;6.32;;;5.70;;
29210;SDS011;16250;49.932;10.980;2023-06-14T07:03:00;8.05;;;5.40;;
29210;SDS011;16250;49.932;10.980;2023-06-14T07:05:26;6.88;;;5.40;;
29210;SDS011;16250;49.932;10.980;2023-06-14T07:07:51;6.50;;;5.00;;
29210;SDS011;16250;49.932;10.980;2023-06-14T07:10:17;6.93;;;4.75;;
29210;SDS011;16250;49.932;10.980;2023-06-14T07:12:43;7.10;;;5.38;;
29210;SDS011;16250;49.932;10.980;2023-06-14T07:15:08;6.55;;;5.00;;
29210;SDS011;16250;49.932;10.980;2023-06-14T07:17:35;5.72;;;4.72;;
29210;SDS011;16250;49.932;10.980;2023-06-14T07:20:01;6.22;;;4.35;;
29210;SDS011;16250;49.932;10.980;2023-06-14T07:22:40;5.97;;;4.38;;
29210;SDS011;16250;49.932;10.980;2023-06-14T07:25:07;8.95;;;4.15;;
29210;SDS011;16250;49.932;10.980;2023-06-14T07:27:39;7.50;;;4.50;;
29210;SDS011;16250;49.932;10.980;2023-06-14T07:30:07;4.03;;;3.63;;
29210;SDS011;16250;49.932;10.980;2023-06-14T07:32:33;4.68;;;3.55;;
29210;SDS011;16250;49.932;10.980;2023-06-14T07:34:58;5.85;;;3.70;;
29210;SDS011;16250;49.932;10.980;2023-06-14T07:37:24;4.32;;;3.50;;
29210;SDS011;16250;49.932;10.980;2023-06-14T07:39:49;3.83;;;3.30;;
29210;SDS011;16250;49.932;10.980;2023-06-14T07:42:15;3.50;;;3.20;;
29210;SDS011;16250;49.932;10.980;2023-06-14T07:44:40;7.07;;;3.28;;
29210;SDS011;16250;49.932;10.980;2023-06-14T07:47:06;7.53;;;3.30;;
29210;SDS011;16250;49.932;10.980;2023-06-14T07:49:31;5.22;;;3.00;;
29210;SDS011;16250;49.932;10.980;2023-06-14T07:51:57;4.80;;;2.92;;
29210;SDS011;16250;49.932;10.980;2023-06-14T07:54:23;3.53;;;3.00;;
29210;SDS011;16250;49.932;10.980;2023-06-14T07:56:51;3.63;;;2.97;;
29210;SDS011;16250;49.932;10.980;2023-06-14T07:59:17;4.38;;;3.10;;
29210;SDS011;16250;49.932;10.980;2023-06-14T08:01:42;4.95;;;3.35;;
29210;SDS011;16250;49.932;10.980;2023-06-14T08:04:12;6.13;;;3.60;;
29210;SDS011;16250;49.932;10.980;2023-06-14T08:06:37;3.85;;;3.17;;
29210;SDS011;16250;49.932;10.980;2023-06-14T08:09:04;4.95;;;3.33;;
29210;SDS011;16250;49.932;10.980;2023-06-14T08:11:30;3.72;;;2.85;;
29210;SDS011;16250;49.932;10.980;2023-06-14T08:13:55;5.65;;;3.08;;
29210;SDS011;16250;49.932;10.980;2023-06-14T08:16:21;7.07;;;3.55;;
29210;SDS011;16250;49.932;10.980;2023-06-14T08:18:46;6.15;;;3.35;;
29210;SDS011;16250;49.932;10.980;2023-06-14T08:21:11;4.15;;;3.53;;
29210;SDS011;16250;49.932;10.980;2023-06-14T08:23:38;4.68;;;3.70;;
29210;SDS011;16250;49.932;10.980;2023-06-14T08:26:04;54.22;;;9.90;;
29210;SDS011;16250;49.932;10.980;2023-06-14T08:28:29;84.07;;;20.67;;
29210;SDS011;16250;49.932;10.980;2023-06-14T08:30:55;14.85;;;4.75;;
29210;SDS011;16250;49.932;10.980;2023-06-14T08:33:21;7.70;;;3.40;;
29210;SDS011;16250;49.932;10.980;2023-06-14T08:35:46;6.03;;;3.60;;
29210;SDS011;16250;49.932;10.980;2023-06-14T08:38:11;9.93;;;7.35;;
29210;SDS011;16250;49.932;10.980;2023-06-14T08:40:37;5.20;;;3.38;;
29210;SDS011;16250;49.932;10.980;2023-06-14T08:43:03;5.22;;;3.40;;
29210;SDS011;16250;49.932;10.980;2023-06-14T08:45:28;5.28;;;3.20;;
29210;SDS011;16250;49.932;10.980;2023-06-14T08:47:54;4.28;;;3.28;;
29210;SDS011;16250;49.932;10.980;2023-06-14T08:50:25;5.38;;;3.05;;
29210;SDS011;16250;49.932;10.980;2023-06-14T08:53:00;7.18;;;3.28;;
29210;SDS011;16250;49.932;10.980;2023-06-14T08:55:28;7.00;;;3.00;;
29210;SDS011;16250;49.932;10.980;2023-06-14T08:57:57;4.72;;;2.92;;
29210;SDS011;16250;49.932;10.980;2023-06-14T09:00:24;4.72;;;2.97;;
29210;SDS011;16250;49.932;10.980;2023-06-14T09:02:50;4.53;;;3.03;;
29210;SDS011;16250;49.932;10.980;2023-06-14T09:05:21;4.43;;;3.55;;
29210;SDS011;16250;49.932;10.980;2023-06-14T09:07:48;4.25;;;3.20;;
29210;SDS011;16250;49.932;10.980;2023-06-14T09:10:15;4.72;;;2.97;;
29210;SDS011;16250;49.932;10.980;2023-06-14T09:12:40;6.10;;;3.60;;
29210;SDS011;16250;49.932;10.980;2023-06-14T09:15:07;8.52;;;3.25;;
29210;SDS011;16250;49.932;10.980;2023-06-14T09:17:37;3.80;;;3.13;;
29210;SDS011;16250;49.932;10.980;2023-06-14T09:20:03;4.30;;;3.13;;
29210;SDS011;16250;49.932;10.980;2023-06-14T09:22:38;3.17;;;2.88;;
29210;SDS011;16250;49.932;10.980;2023-06-14T09:25:04;6.13;;;3.30;;
29210;SDS011;16250;49.932;10.980;2023-06-14T09:27:30;4.90;;;3.28;;
29210;SDS011;16250;49.932;10.980;2023-06-14T09:29:56;4.50;;;3.35;;
29210;SDS011;16250;49.932;10.980;2023-06-14T09:32:21;6.22;;;3.47;;
29210;SDS011;16250;49.932;10.980;2023-06-14T09:34:47;4.60;;;3.00;;
29210;SDS011;16250;49.932;10.980;2023-06-14T09:37:13;3.80;;;3.28;;
29210;SDS011;16250;49.932;10.980;2023-06-14T09:39:50;3.50;;;3.20;;
29210;SDS011;16250;49.932;10.980;2023-06-14T09:42:16;4.63;;;3.42;;
29210;SDS011;16250;49.932;10.980;2023-06-14T09:44:43;5.63;;;3.58;;
29210;SDS011;16250;49.932;10.980;2023-06-14T09:47:12;5.60;;;3.58;;
29210;SDS011;16250;49.932;10.980;2023-06-14T09:49:38;7.18;;;3.17;;
29210;SDS011;16250;49.932;10.980;2023-06-14T09:52:05;6.03;;;3.58;;
29210;SDS011;16250;49.932;10.980;2023-06-14T09:54:31;5.05;;;3.20;;
29210;SDS011;16250;49.932;10.980;2023-06-14T09:56:58;3.95;;;2.97;;
29210;SDS011;16250;49.932;10.980;2023-06-14T09:59:25;4.40;;;3.30;;
29210;SDS011;16250;49.932;10.980;2023-06-14T10:01:54;6.45;;;3.30;;
29210;SDS011;16250;49.932;10.980;2023-06-14T10:04:23;4.20;;;3.08;;
29210;SDS011;16250;49.932;10.980;2023-06-14T10:06:49;4.80;;;3.25;;
29210;SDS011;16250;49.932;10.980;2023-06-14T10:09:15;3.75;;;3.35;;
29210;SDS011;16250;49.932;10.980;2023-06-14T10:11:40;5.03;;;3.33;;
29210;SDS011;16250;49.932;10.980;2023-06-14T10:14:08;4.30;;;3.13;;
29210;SDS011;16250;49.932;10.980;2023-06-14T10:19:34;5.00;;;3.10;;
29210;SDS011;16250;49.932;10.980;2023-06-14T10:22:17;5.05;;;3.30;;
29210;SDS011;16250;49.932;10.980;2023-06-14T10:24:45;5.97;;;3.25;;
29210;SDS011;16250;49.932;10.980;2023-06-14T10:27:15;7.18;;;3.22;;
29210;SDS011;16250;49.932;10.980;2023-06-14T10:32:25;4.18;;;3.60;;
29210;SDS011;16250;49.932;10.980;2023-06-14T10:34:53;4.30;;;3.17;;
29210;SDS011;16250;49.932;10.980;2023-06-14T10:37:20;4.15;;;3.63;;
29210;SDS011;16250;49.932;10.980;2023-06-14T10:39:46;4.72;;;3.60;;
29210;SDS011;16250;49.932;10.980;2023-06-14T10:42:12;6.28;;;3.25;;
29210;SDS011;16250;49.932;10.980;2023-06-14T10:44:50;3.80;;;3.30;;
29210;SDS011;16250;49.932;10.980;2023-06-14T10:47:24;4.95;;;3.35;;
29210;SDS011;16250;49.932;10.980;2023-06-14T10:50:07;5.63;;;3.40;;
29210;SDS011;16250;49.932;10.980;2023-06-14T10:52:34;6.60;;;3.65;;
29210;SDS011;16250;49.932;10.980;2023-06-14T10:55:10;3.75;;;3.08;;
29210;SDS011;16250;49.932;10.980;2023-06-14T10:57:44;7.78;;;3.40;;
29210;SDS011;16250;49.932;10.980;2023-06-14T11:00:11;4.78;;;3.30;;
29210;SDS011;16250;49.932;10.980;2023-06-14T11:05:23;5.10;;;3.35;;
29210;SDS011;16250;49.932;10.980;2023-06-14T11:10:38;5.18;;;3.25;;
29210;SDS011;16250;49.932;10.980;2023-06-14T11:13:04;6.47;;;3.05;;
29210;SDS011;16250;49.932;10.980;2023-06-14T11:15:30;5.18;;;3.70;;
29210;SDS011;16250;49.932;10.980;2023-06-14T11:17:56;4.57;;;3.28;;
29210;SDS011;16250;49.932;10.980;2023-06-14T11:20:26;4.05;;;2.88;;
29210;SDS011;16250;49.932;10.980;2023-06-14T11:22:52;5.57;;;3.22;;
29210;SDS011;16250;49.932;10.980;2023-06-14T11:25:18;4.80;;;3.35;;
29210;SDS011;16250;49.932;10.980;2023-06-14T11:27:44;4.85;;;3.20;;
29210;SDS011;16250;49.932;10.980;2023-06-14T11:30:10;4.55;;;3.00;;
29210;SDS011;16250;49.932;10.980;2023-06-14T11:32:36;3.53;;;3.20;;
29210;SDS011;16250;49.932;10.980;2023-06-14T11:35:02;4.80;;;3.15;;
29210;SDS011;16250;49.932;10.980;2023-06-14T11:37:30;3.90;;;3.03;;
29210;SDS011;16250;49.932;10.980;2023-06-14T11:39:59;3.78;;;2.60;;
29210;SDS011;16250;49.932;10.980;2023-06-14T11:42:33;3.78;;;3.00;;
29210;SDS011;16250;49.932;10.980;2023-06-14T11:44:58;4.30;;;2.83;;
29210;SDS011;16250;49.932;10.980;2023-06-14T11:47:24;3.58;;;2.83;;
29210;SDS011;16250;49.932;10.980;2023-06-14T11:49:50;5.30;;;2.95;;
29210;SDS011;16250;49.932;10.980;2023-06-14T11:52:16;6.68;;;3.28;;
29210;SDS011;16250;49.932;10.980;2023-06-14T11:54:41;4.53;;;3.17;;
29210;SDS011;16250;49.932;10.980;2023-06-14T11:57:07;4.15;;;3.00;;
29210;SDS011;16250;49.932;10.980;2023-06-14T11:59:39;5.13;;;3.03;;
29210;SDS011;16250;49.932;10.980;2023-06-14T12:02:05;3.75;;;3.30;;
29210;SDS011;16250;49.932;10.980;2023-06-14T12:04:31;4.15;;;2.90;;
29210;SDS011;16250;49.932;10.980;2023-06-14T12:06:57;6.90;;;3.20;;
29210;SDS011;16250;49.932;10.980;2023-06-14T12:09:23;5.43;;;2.80;;
29210;SDS011;16250;49.932;10.980;2023-06-14T12:11:51;3.80;;;2.67;;
29210;SDS011;16250;49.932;10.980;2023-06-14T12:14:28;3.17;;;2.88;;
29210;SDS011;16250;49.932;10.980;2023-06-14T12:17:03;3.38;;;3.03;;
29210;SDS011;16250;49.932;10.980;2023-06-14T12:19:29;6.05;;;2.80;;
29210;SDS011;16250;49.932;10.980;2023-06-14T12:21:56;4.57;;;2.80;;
29210;SDS011;16250;49.932;10.980;2023-06-14T12:24:27;5.18;;;2.90;;
29210;SDS011;16250;49.932;10.980;2023-06-14T12:26:53;4.55;;;2.85;;
29210;SDS011;16250;49.932;10.980;2023-06-14T12:29:19;6.20;;;2.90;;
29210;SDS011;16250;49.932;10.980;2023-06-14T12:31:44;3.72;;;2.63;;
29210;SDS011;16250;49.932;10.980;2023-06-14T12:34:10;4.65;;;2.72;;
29210;SDS011;16250;49.932;10.980;2023-06-14T12:36:35;4.10;;;2.60;;
29210;SDS011;16250;49.932;10.980;2023-06-14T12:39:05;3.15;;;2.47;;
29210;SDS011;16250;49.932;10.980;2023-06-14T12:41:31;4.10;;;2.70;;
29210;SDS011;16250;49.932;10.980;2023-06-14T12:43:56;3.20;;;2.72;;
29210;SDS011;16250;49.932;10.980;2023-06-14T12:46:24;4.75;;;2.72;;
29210;SDS011;16250;49.932;10.980;2023-06-14T12:48:50;3.42;;;2.50;;
29210;SDS011;16250;49.932;10.980;2023-06-14T12:51:16;3.00;;;2.70;;
29210;SDS011;16250;49.932;10.980;2023-06-14T12:53:41;3.70;;;2.60;;
29210;SDS011;16250;49.932;10.980;2023-06-14T12:56:07;3.40;;;2.47;;
29210;SDS011;16250;49.932;10.980;2023-06-14T12:58:32;3.95;;;2.70;;
29210;SDS011;16250;49.932;10.980;2023-06-14T13:00:57;2.60;;;2.40;;
29210;SDS011;16250;49.932;10.980;2023-06-14T13:03:23;4.28;;;2.55;;
29210;SDS011;16250;49.932;10.980;2023-06-14T13:05:48;3.67;;;2.60;;
29210;SDS011;16250;49.932;10.980;2023-06-14T13:08:14;4.22;;;2.50;;
29210;SDS011;16250;49.932;10.980;2023-06-14T13:10:39;3.13;;;2.50;;
29210;SDS011;16250;49.932;10.980;2023-06-14T13:13:04;4.28;;;2.85;;
29210;SDS011;16250;49.932;10.980;2023-06-14T13:15:32;3.28;;;2.58;;
29210;SDS011;16250;49.932;10.980;2023-06-14T13:17:57;3.00;;;2.45;;
29210;SDS011;16250;49.932;10.980;2023-06-14T13:20:23;4.68;;;2.47;;
29210;SDS011;16250;49.932;10.980;2023-06-14T13:22:48;3.38;;;2.80;;
29210;SDS011;16250;49.932;10.980;2023-06-14T13:25:14;3.38;;;2.67;;
29210;SDS011;16250;49.932;10.980;2023-06-14T13:27:39;2.38;;;2.17;;
29210;SDS011;16250;49.932;10.980;2023-06-14T13:30:05;4.72;;;2.95;;
29210;SDS011;16250;49.932;10.980;2023-06-14T13:32:31;6.15;;;3.20;;
29210;SDS011;16250;49.932;10.980;2023-06-14T13:34:57;3.55;;;3.25;;
29210;SDS011;16250;49.932;10.980;2023-06-14T13:37:22;4.45;;;2.67;;
29210;SDS011;16250;49.932;10.980;2023-06-14T13:39:48;3.63;;;2.92;;
29210;SDS011;16250;49.932;10.980;2023-06-14T13:42:13;5.00;;;2.65;;
29210;SDS011;16250;49.932;10.980;2023-06-14T13:44:39;2.40;;;2.20;;
29210;SDS011;16250;49.932;10.980;2023-06-14T13:47:05;3.55;;;2.78;;
29210;SDS011;16250;49.932;10.980;2023-06-14T13:49:30;4.22;;;2.70;;
29210;SDS011;16250;49.932;10.980;2023-06-14T13:51:56;2.83;;;2.53;;
29210;SDS011;16250;49.932;10.980;2023-06-14T13:54:22;5.82;;;2.95;;
29210;SDS011;16250;49.932;10.980;2023-06-14T13:56:48;4.10;;;2.65;;
29210;SDS011;16250;49.932;10.980;2023-06-14T13:59:13;3.38;;;2.83;;
29210;SDS011;16250;49.932;10.980;2023-06-14T14:01:39;5.10;;;2.88;;
29210;SDS011;16250;49.932;10.980;2023-06-14T14:04:05;4.30;;;2.78;;
29210;SDS011;16250;49.932;10.980;2023-06-14T14:06:31;6.75;;;3.00;;
29210;SDS011;16250;49.932;10.980;2023-06-14T14:08:57;5.63;;;2.88;;
29210;SDS011;16250;49.932;10.980;2023-06-14T14:11:22;4.47;;;2.70;;
29210;SDS011;16250;49.932;10.980;2023-06-14T14:13:48;4.82;;;3.10;;
29210;SDS011;16250;49.932;10.980;2023-06-14T14:16:14;5.03;;;2.83;;
29210;SDS011;16250;49.932;10.980;2023-06-14T14:18:39;4.57;;;2.65;;
29210;SDS011;16250;49.932;10.980;2023-06-14T14:21:05;5.22;;;2.88;;
29210;SDS011;16250;49.932;10.980;2023-06-14T14:23:30;3.67;;;2.42;;
29210;SDS011;16250;49.932;10.980;2023-06-14T14:25:56;4.03;;;2.78;;
29210;SDS011;16250;49.932;10.980;2023-06-14T14:28:21;3.88;;;2.70;;
29210;SDS011;16250;49.932;10.980;2023-06-14T14:30:47;3.92;;;2.83;;
29210;SDS011;16250;49.932;10.980;2023-06-14T14:33:15;4.13;;;2.83;;
29210;SDS011;16250;49.932;10.980;2023-06-14T14:35:42;4.65;;;2.75;;
29210;SDS011;16250;49.932;10.980;2023-06-14T14:38:10;4.15;;;3.20;;
29210;SDS011;16250;49.932;10.980;2023-06-14T14:40:36;5.43;;;3.13;;
29210;SDS011;16250;49.932;10.980;2023-06-14T14:43:01;3.95;;;3.10;;
29210;SDS011;16250;49.932;10.980;2023-06-14T14:45:27;4.72;;;3.05;;
29210;SDS011;16250;49.932;10.980;2023-06-14T14:47:52;5.43;;;3.08;;
29210;SDS011;16250;49.932;10.980;2023-06-14T14:50:18;6.05;;;3.38;;